Sumterville, FL

6:43 PM EDT on August 27, 2016 (GMT -0400)
Fenco Farms | | Change Station

Elev 118 ft 28.69 °N, 81.94 °W | Updated 2 minutes ago

Scattered Clouds
Scattered Clouds
88.7 °F
Feels Like 102 °F
N
6.3
Wind Variable Wind from ESE

Today
High -- | Low -- °F
--% Chance of Precip.
Yesterday
High -- | Low -- °F
Precip. -- in
Pressure 29.94 in
Visibility 10.0 miles
Clouds Scattered Clouds 5000 ft
Scattered Clouds 7500 ft
Heat Index 102 °F
Dew Point 77 °F
Humidity 69%
Rainfall 0.00 in
Snow Depth Not available.
7:03 AM 7:54 PM
Waning Crescent, 21% visible
SPECI KLEE 272200Z 13013G19KT 10SM SCT050 SCT075 30/23 A2994 RMK AO2 WSHFT 2140 T03000233
Pressure 29.94 in
Visibility 10.0 miles
Clouds Scattered Clouds 5000 ft
Scattered Clouds 7500 ft
Heat Index 102 °F
Dew Point 77 °F
Humidity 69%
Rainfall 0.00 in
Snow Depth Not available.
7:03 AM 7:54 PM
Waning Crescent, 21% visible
SPECI KLEE 272200Z 13013G19KT 10SM SCT050 SCT075 30/23 A2994 RMK AO2 WSHFT 2140 T03000233

10-Day Weather Forecast

Almanac

Astronomy

Aug. 27, 2016 Rise Set
Actual Time
Civil Twilight
Nautical Twilight
Astronomical Twilight
Moon
Length of Visible Light
Length of Day
Tomorrow will be .
, % of the Moon is Illuminated

Today's Extremes

State Highs State Lows

Community

WunderPhotos

Upload Photos

1,935,458 photos uploaded!

WunderBlog® & News

Nearby

Air Quality

  Air Quality AQ Index Pollutant
Not available.

Snow Depth

Station Depth Elevation

Earthquake Activity

City Distance Mag. Time & Date
Minimum magnitude displayed is 2.5.

Coastal Water Temperatures

Place Temperature

Stations

Nearby Weather Stations

Station Location Temp. Windchill Dew Point Humidity Wind Precip. Elev Updated Type
                   

Watches & Warnings

There are currently no watches in effect.